Time;durP1;ratioP1;P1;durP2;ratioP2;P2;SDS_P1;SDS_P2;PMS_P1;PMS_P2;Temp;Humidity;BMP_temperature;BMP_pressure;BME280_temperature;BME280_humidity;BME280_pressure;Samples;Min_cycle;Max_cycle;Signal;HPM_P1;HPM_P2
2022/09/04 00:01:32;;;;;;;5.43;3.42;;;;;;;;;;6179883;23;20450;-57
2022/09/04 00:04:20;;;;;;;5.32;3.30;;;;;;;;;;6178881;23;20672;-57
2022/09/04 00:07:13;;;;;;;4.57;3.25;;;;;;;;;;6179071;23;20362;-52
2022/09/04 00:10:02;;;;;;;3.97;3.00;;;;;;;;;;6179530;23;20029;-56
2022/09/04 00:12:32;;;;;;;8.85;3.30;;;;;;;;;;6178598;23;20078;-56
2022/09/04 00:15:24;;;;;;;6.43;3.08;;;;;;;;;;6178678;23;20021;-57
2022/09/04 00:18:13;;;;;;;6.60;3.30;;;;;;;;;;6180093;23;20028;-46
2022/09/04 00:20:52;;;;;;;4.63;3.10;;;;;;;;;;6179328;23;20025;-48
2022/09/04 00:23:21;;;;;;;5.13;3.33;;;;;;;;;;6179821;23;20079;-49
2022/09/04 00:25:58;;;;;;;6.00;3.10;;;;;;;;;;6179379;23;20029;-49
2022/09/04 00:28:37;;;;;;;5.43;3.08;;;;;;;;;;6177846;23;20056;-52
2022/09/04 00:31:12;;;;;;;7.07;3.10;;;;;;;;;;6178667;23;20028;-53
2022/09/04 00:33:47;;;;;;;9.10;3.50;;;;;;;;;;6179487;23;20043;-53
2022/09/04 00:36:24;;;;;;;10.60;3.75;;;;;;;;;;6178351;23;20532;-66
2022/09/04 00:38:55;;;;;;;5.03;3.47;;;;;;;;;;6178383;23;20143;-66
2022/09/04 00:41:30;;;;;;;7.68;3.35;;;;;;;;;;6179538;23;20021;-66
2022/09/04 00:44:16;;;;;;;7.55;3.47;;;;;;;;;;6177471;23;20029;-66
2022/09/04 00:47:08;;;;;;;5.57;3.20;;;;;;;;;;6177636;23;20029;-66
2022/09/04 00:49:56;;;;;;;6.25;3.20;;;;;;;;;;6178650;23;20057;-66
2022/09/04 00:52:53;;;;;;;7.68;3.70;;;;;;;;;;6153961;23;20099;-66
2022/09/04 00:55:24;;;;;;;5.35;2.88;;;;;;;;;;6178078;23;20029;-66
2022/09/04 00:58:17;;;;;;;6.25;3.33;;;;;;;;;;6177194;23;20032;-47
2022/09/04 01:00:46;;;;;;;3.78;2.92;;;;;;;;;;6178868;23;20462;-56
2022/09/04 01:03:38;;;;;;;6.13;3.22;;;;;;;;;;6178745;23;20440;-51
2022/09/04 01:06:27;;;;;;;4.60;3.40;;;;;;;;;;6177444;23;20036;-56
2022/09/04 01:09:10;;;;;;;7.03;3.40;;;;;;;;;;6177181;23;20087;-55
2022/09/04 01:11:52;;;;;;;9.25;3.60;;;;;;;;;;6179346;23;20497;-55
2022/09/04 01:14:33;;;;;;;6.57;3.50;;;;;;;;;;6177790;23;20076;-67
2022/09/04 01:17:12;;;;;;;6.28;3.80;;;;;;;;;;6176092;23;20048;-67
2022/09/04 01:19:56;;;;;;;6.40;3.40;;;;;;;;;;6179261;23;20351;-72
2022/09/04 01:22:23;;;;;;;7.90;3.30;;;;;;;;;;6177276;23;20486;-71
2022/09/04 01:25:15;;;;;;;7.55;3.30;;;;;;;;;;6179246;23;20021;-72
2022/09/04 01:27:48;;;;;;;8.25;3.58;;;;;;;;;;6177776;23;20817;-71
2022/09/04 01:30:22;;;;;;;8.32;3.45;;;;;;;;;;6177511;23;20036;-71
2022/09/04 01:33:08;;;;;;;5.50;3.20;;;;;;;;;;6178516;23;20052;-50
2022/09/04 01:35:47;;;;;;;10.00;3.60;;;;;;;;;;6176849;23;20486;-56
2022/09/04 01:38:37;;;;;;;5.40;3.15;;;;;;;;;;6177676;23;20048;-70
2022/09/04 01:41:24;;;;;;;5.13;3.30;;;;;;;;;;6178495;23;20438;-71
2022/09/04 01:43:51;;;;;;;87.10;6.63;;;;;;;;;;6178298;23;20490;-71
2022/09/04 01:46:30;;;;;;;6.70;3.70;;;;;;;;;;6176162;23;20053;-71
2022/09/04 01:49:05;;;;;;;7.38;3.75;;;;;;;;;;6178277;23;20067;-71
2022/09/04 01:51:50;;;;;;;6.30;3.15;;;;;;;;;;6178104;23;20466;-50
2022/09/04 01:54:27;;;;;;;8.45;3.35;;;;;;;;;;6176871;23;20419;-61
2022/09/04 01:57:20;;;;;;;7.10;3.30;;;;;;;;;;6177876;23;20052;-66
2022/09/04 01:59:58;;;;;;;6.63;3.13;;;;;;;;;;6177087;23;20343;-66
2022/09/04 02:02:46;;;;;;;9.98;3.60;;;;;;;;;;6178401;23;20025;-66
2022/09/04 02:05:37;;;;;;;4.65;3.20;;;;;;;;;;6178528;23;20445;-65
2022/09/04 02:08:27;;;;;;;5.38;3.53;;;;;;;;;;6178023;23;20025;-66
2022/09/04 02:11:08;;;;;;;6.93;2.95;;;;;;;;;;6179223;23;20091;-52
2022/09/04 02:13:43;;;;;;;4.07;3.22;;;;;;;;;;6178331;23;20080;-45
2022/09/04 02:16:19;;;;;;;6.78;3.38;;;;;;;;;;6178471;23;20021;-62
2022/09/04 02:19:11;;;;;;;5.03;3.00;;;;;;;;;;6177060;23;20538;-62
2022/09/04 02:21:47;;;;;;;3.97;2.80;;;;;;;;;;6177233;23;20029;-62
2022/09/04 02:24:26;;;;;;;5.85;3.22;;;;;;;;;;6179193;23;20025;-61
2022/09/04 02:26:56;;;;;;;5.50;2.70;;;;;;;;;;6177574;23;20021;-62
2022/09/04 02:29:39;;;;;;;5.28;2.80;;;;;;;;;;6177541;23;20351;-55
2022/09/04 02:32:24;;;;;;;3.40;2.80;;;;;;;;;;6177998;23;20060;-48
2022/09/04 02:35:08;;;;;;;5.13;2.47;;;;;;;;;;6176599;23;20423;-71
2022/09/04 02:37:50;;;;;;;3.63;2.53;;;;;;;;;;6176883;23;20025;-71
2022/09/04 02:40:47;;;;;;;3.70;2.50;;;;;;;;;;6177525;23;20025;-71
2022/09/04 02:43:23;;;;;;;2.92;2.30;;;;;;;;;;6178331;23;20414;-71
2022/09/04 02:46:02;;;;;;;7.15;2.67;;;;;;;;;;6177103;23;20029;-71
2022/09/04 02:48:44;;;;;;;2.63;2.22;;;;;;;;;;6177711;23;20035;-66
2022/09/04 02:51:36;;;;;;;3.88;2.55;;;;;;;;;;6177097;23;20492;-68
2022/09/04 02:54:03;;;;;;;4.55;2.30;;;;;;;;;;6152676;23;20053;-62
2022/09/04 02:57:13;;;;;;;4.00;2.35;;;;;;;;;;6177411;23;20033;-63
2022/09/04 02:59:49;;;;;;;2.60;2.38;;;;;;;;;;6028131;23;20019;-62
2022/09/04 03:02:35;;;;;;;4.35;2.33;;;;;;;;;;6167330;23;20060;-62
2022/09/04 03:05:07;;;;;;;6.72;2.70;;;;;;;;;;6178921;23;20025;-62
2022/09/04 03:07:40;;;;;;;;;;;;;;;;;;6178169;23;20032;-63
2022/09/04 03:10:17;;;;;;;3.80;2.40;;;;;;;;;;6178835;23;19920;-54
2022/09/04 03:12:53;;;;;;;2.70;2.40;;;;;;;;;;6179882;23;20079;-62
2022/09/04 03:15:27;;;;;;;5.90;2.60;;;;;;;;;;6180672;23;20025;-62
2022/09/04 03:18:10;;;;;;;8.02;2.97;;;;;;;;;;6178595;23;20410;-63
2022/09/04 03:20:46;;;;;;;3.10;2.60;;;;;;;;;;6178985;23;20075;-63
2022/09/04 03:23:28;;;;;;;4.35;2.60;;;;;;;;;;6178802;23;20325;-62
2022/09/04 03:26:09;;;;;;;3.15;2.63;;;;;;;;;;6179464;23;20384;-63
2022/09/04 03:28:42;;;;;;;4.22;3.08;;;;;;;;;;6180224;23;20032;-58
2022/09/04 03:31:18;;;;;;;3.92;2.60;;;;;;;;;;6180076;23;20028;-56
2022/09/04 03:33:56;;;;;;;3.00;2.50;;;;;;;;;;6179708;23;20083;-57
2022/09/04 03:36:32;;;;;;;2.72;2.20;;;;;;;;;;6179533;23;20025;-57
2022/09/04 03:39:14;;;;;;;3.90;2.40;;;;;;;;;;6179722;23;20028;-54
2022/09/04 03:41:45;;;;;;;3.80;2.40;;;;;;;;;;6178488;23;20025;-57
2022/09/04 03:44:28;;;;;;;4.70;2.47;;;;;;;;;;6179640;23;20029;-56
2022/09/04 03:47:14;;;;;;;3.35;2.85;;;;;;;;;;6179029;23;20025;-56
2022/09/04 03:49:52;;;;;;;3.10;2.70;;;;;;;;;;6179249;23;20028;-66
2022/09/04 03:52:19;;;;;;;2.47;2.28;;;;;;;;;;6178545;23;20032;-65
2022/09/04 03:54:53;;;;;;;4.55;2.80;;;;;;;;;;6180676;23;20228;-66
2022/09/04 03:57:51;;;;;;;2.70;2.50;;;;;;;;;;6178509;23;20025;-66
2022/09/04 04:00:19;;;;;;;3.63;2.80;;;;;;;;;;6181749;23;20025;-63
2022/09/04 04:03:02;;;;;;;5.68;2.70;;;;;;;;;;6179766;23;20119;-66
2022/09/04 04:05:51;;;;;;;3.25;2.47;;;;;;;;;;6181119;23;20521;-63
2022/09/04 04:08:46;;;;;;;3.40;2.60;;;;;;;;;;6181522;23;20091;-66
2022/09/04 04:11:29;;;;;;;3.35;2.50;;;;;;;;;;6179700;23;20075;-53
2022/09/04 04:14:37;;;;;;;2.90;2.53;;;;;;;;;;6180196;23;20812;-55
2022/09/04 04:17:04;;;;;;;4.63;2.75;;;;;;;;;;6101154;23;20454;-56
2022/09/04 04:19:45;;;;;;;8.85;2.95;;;;;;;;;;6179714;23;20020;-56
2022/09/04 04:22:15;;;;;;;4.03;2.58;;;;;;;;;;6179536;23;20020;-53
2022/09/04 04:24:53;;;;;;;4.43;2.70;;;;;;;;;;6178327;23;20028;-54
2022/09/04 04:27:32;;;;;;;4.35;2.50;;;;;;;;;;6175704;23;20029;-59
2022/09/04 04:30:11;;;;;;;3.55;2.60;;;;;;;;;;6180248;23;20509;-45
2022/09/04 04:32:57;;;;;;;3.83;2.50;;;;;;;;;;6176820;23;20035;-50
2022/09/04 04:35:33;;;;;;;4.70;2.83;;;;;;;;;;6179103;23;20406;-45
2022/09/04 04:38:19;;;;;;;3.47;2.63;;;;;;;;;;6152131;23;20024;-45
2022/09/04 04:40:58;;;;;;;2.65;2.40;;;;;;;;;;6178395;23;20028;-45
2022/09/04 04:43:31;;;;;;;5.22;2.60;;;;;;;;;;6179300;23;20410;-56
2022/09/04 04:46:05;;;;;;;2.97;2.30;;;;;;;;;;6180283;23;20354;-45
2022/09/04 04:48:38;;;;;;;3.70;2.30;;;;;;;;;;6179239;23;20453;-62
2022/09/04 04:51:23;;;;;;;3.58;2.65;;;;;;;;;;6178021;23;20021;-62
2022/09/04 04:54:12;;;;;;;3.28;2.70;;;;;;;;;;6178444;23;20061;-62
2022/09/04 04:57:04;;;;;;;3.88;2.70;;;;;;;;;;6179654;23;20489;-62
2022/09/04 04:59:43;;;;;;;8.85;2.33;;;;;;;;;;6179804;23;20075;-63
2022/09/04 05:02:20;;;;;;;3.10;2.55;;;;;;;;;;6176869;23;20021;-55
2022/09/04 05:05:01;;;;;;;4.30;2.40;;;;;;;;;;6179467;23;20100;-53
2022/09/04 05:07:39;;;;;;;5.30;2.60;;;;;;;;;;6179497;23;20067;-55
2022/09/04 05:10:19;;;;;;;5.22;2.80;;;;;;;;;;6177904;23;20056;-58
2022/09/04 05:13:11;;;;;;;4.45;2.60;;;;;;;;;;6179065;23;20021;-58
2022/09/04 05:15:57;;;;;;;8.50;2.65;;;;;;;;;;6179304;23;20340;-58
2022/09/04 05:18:49;;;;;;;3.75;2.70;;;;;;;;;;6178940;23;20454;-58
2022/09/04 05:21:28;;;;;;;4.25;2.60;;;;;;;;;;6179986;23;20067;-54
2022/09/04 05:24:21;;;;;;;4.75;2.88;;;;;;;;;;6179850;23;20025;-48
2022/09/04 05:26:59;;;;;;;3.47;2.67;;;;;;;;;;6179378;23;20021;-66
2022/09/04 05:29:40;;;;;;;6.43;2.63;;;;;;;;;;6178166;23;20371;-66
2022/09/04 05:32:13;;;;;;;2.70;2.22;;;;;;;;;;6177670;23;20079;-66
2022/09/04 05:35:07;;;;;;;4.63;2.25;;;;;;;;;;6179410;23;20025;-66
2022/09/04 05:37:51;;;;;;;9.77;2.63;;;;;;;;;;6155767;23;20092;-66
2022/09/04 05:40:25;;;;;;;3.17;2.30;;;;;;;;;;6178305;23;20021;-55
2022/09/04 05:43:22;;;;;;;3.65;2.08;;;;;;;;;;6178285;23;20029;-55
2022/09/04 05:46:17;;;;;;;4.05;2.17;;;;;;;;;;6056902;23;20028;-46
2022/09/04 05:48:58;;;;;;;5.15;2.40;;;;;;;;;;6178436;23;20021;-46
2022/09/04 05:51:43;;;;;;;2.88;2.08;;;;;;;;;;6177184;23;20826;-47
2022/09/04 05:54:14;;;;;;;4.53;2.50;;;;;;;;;;6179845;23;20028;-45
2022/09/04 05:56:59;;;;;;;2.67;2.00;;;;;;;;;;6177789;23;20076;-47
2022/09/04 05:59:26;;;;;;;3.97;2.67;;;;;;;;;;6179213;23;20068;-59
2022/09/04 06:02:10;;;;;;;1.98;1.50;;;;;;;;;;6177544;23;20024;-66
2022/09/04 06:05:03;;;;;;;3.22;1.95;;;;;;;;;;6179412;23;20032;-50
2022/09/04 06:07:36;;;;;;;;;;;;;;;;;;6130307;23;20032;-46
2022/09/04 06:10:16;;;;;;;2.80;2.10;;;;;;;;;;6177454;23;19947;-51
2022/09/04 06:12:56;;;;;;;4.47;2.13;;;;;;;;;;6178807;23;20025;-48
2022/09/04 06:15:42;;;;;;;4.38;2.22;;;;;;;;;;6177663;23;20028;-48
2022/09/04 06:18:35;;;;;;;2.80;1.90;;;;;;;;;;6176466;23;20021;-46
2022/09/04 06:21:11;;;;;;;3.58;2.00;;;;;;;;;;6179284;23;20039;-63
2022/09/04 06:23:56;;;;;;;2.65;2.08;;;;;;;;;;6176593;23;20028;-70
2022/09/04 06:26:23;;;;;;;2.95;1.90;;;;;;;;;;6179215;23;20021;-70
2022/09/04 06:29:15;;;;;;;3.10;2.28;;;;;;;;;;6177387;23;20052;-70
2022/09/04 06:31:42;;;;;;;2.53;1.92;;;;;;;;;;6177929;23;20067;-69
2022/09/04 06:34:28;;;;;;;2.92;2.00;;;;;;;;;;6178154;23;20021;-70
2022/09/04 06:37:06;;;;;;;2.90;1.70;;;;;;;;;;6178285;23;20024;-70
2022/09/04 06:39:44;;;;;;;2.80;2.00;;;;;;;;;;6175677;23;20021;-58
2022/09/04 06:42:30;;;;;;;4.53;1.88;;;;;;;;;;6181172;23;20379;-54
2022/09/04 06:45:19;;;;;;;2.40;1.83;;;;;;;;;;6179596;23;20478;-55
2022/09/04 06:47:59;;;;;;;2.67;1.70;;;;;;;;;;6181081;23;20021;-54
2022/09/04 06:50:45;;;;;;;2.55;1.60;;;;;;;;;;6182339;23;20398;-56
2022/09/04 06:53:26;;;;;;;4.55;1.85;;;;;;;;;;6180481;23;20029;-57
2022/09/04 06:56:09;;;;;;;4.43;1.60;;;;;;;;;;6154631;23;20407;-54
2022/09/04 06:58:52;;;;;;;3.40;1.77;;;;;;;;;;6180322;23;20025;-59
2022/09/04 07:01:28;;;;;;;5.70;1.90;;;;;;;;;;6180512;23;20096;-45
2022/09/04 07:04:01;;;;;;;3.05;1.90;;;;;;;;;;6177559;23;20120;-46
2022/09/04 07:06:47;;;;;;;4.68;1.65;;;;;;;;;;6180464;23;20032;-46
2022/09/04 07:09:20;;;;;;;2.90;1.80;;;;;;;;;;6181139;23;20052;-45
2022/09/04 07:11:59;;;;;;;3.05;1.70;;;;;;;;;;6182048;23;20127;-45
2022/09/04 07:14:38;;;;;;;4.00;2.00;;;;;;;;;;6181636;23;20025;-44
2022/09/04 07:17:31;;;;;;;2.92;1.75;;;;;;;;;;6181824;23;20077;-71
2022/09/04 07:20:17;;;;;;;2.08;1.70;;;;;;;;;;6180945;23;20044;-48
2022/09/04 07:22:55;;;;;;;5.38;1.50;;;;;;;;;;6180453;23;20105;-48
2022/09/04 07:25:25;;;;;;;1.63;1.38;;;;;;;;;;6181569;23;20021;-48
2022/09/04 07:28:07;;;;;;;3.42;1.70;;;;;;;;;;6180553;23;20029;-45
2022/09/04 07:30:54;;;;;;;5.57;1.90;;;;;;;;;;6179095;23;20079;-46
2022/09/04 07:33:28;;;;;;;2.08;1.58;;;;;;;;;;6163059;23;20100;-46
2022/09/04 07:36:06;;;;;;;1.83;1.55;;;;;;;;;;6179268;23;20032;-50
2022/09/04 07:38:48;;;;;;;2.17;1.40;;;;;;;;;;6174342;23;20028;-71
2022/09/04 07:41:31;;;;;;;3.55;1.30;;;;;;;;;;6177144;23;20021;-71
2022/09/04 07:44:09;;;;;;;3.60;1.38;;;;;;;;;;6179837;23;20025;-71
2022/09/04 07:46:48;;;;;;;2.75;1.65;;;;;;;;;;6174864;23;20045;-71
2022/09/04 07:49:30;;;;;;;3.50;1.75;;;;;;;;;;6174797;23;20064;-71
2022/09/04 07:52:02;;;;;;;1.55;1.17;;;;;;;;;;6178877;23;20401;-71
2022/09/04 07:54:37;;;;;;;4.30;1.80;;;;;;;;;;6153559;23;20025;-59
2022/09/04 07:57:20;;;;;;;3.63;1.52;;;;;;;;;;6150678;23;20060;-71
2022/09/04 08:00:07;;;;;;;1.55;1.27;;;;;;;;;;6174473;23;20050;-58
2022/09/04 08:03:03;;;;;;;1.23;1.13;;;;;;;;;;6179328;23;20020;-57
2022/09/04 08:05:43;;;;;;;5.40;1.35;;;;;;;;;;6055480;23;20056;-57
2022/09/04 08:08:19;;;;;;;2.35;1.30;;;;;;;;;;6169105;23;20495;-57
2022/09/04 08:11:06;;;;;;;2.05;1.13;;;;;;;;;;6175355;23;20554;-57
2022/09/04 08:13:39;;;;;;;1.70;1.27;;;;;;;;;;6172331;23;20095;-58
2022/09/04 08:16:13;;;;;;;3.55;1.17;;;;;;;;;;6174844;23;20045;-48
2022/09/04 08:19:00;;;;;;;1.15;1.00;;;;;;;;;;6174750;23;20062;-45
2022/09/04 08:21:41;;;;;;;3.33;1.30;;;;;;;;;;6150294;23;20036;-47
2022/09/04 08:24:26;;;;;;;2.40;1.42;;;;;;;;;;6173884;23;20059;-48
2022/09/04 08:27:19;;;;;;;2.08;1.02;;;;;;;;;;6169342;23;20374;-44
2022/09/04 08:29:50;;;;;;;2.60;1.15;;;;;;;;;;6172603;23;20056;-49
2022/09/04 08:32:37;;;;;;;1.30;1.20;;;;;;;;;;6174577;23;20024;-57
2022/09/04 08:35:23;;;;;;;1.35;1.20;;;;;;;;;;6174658;23;20039;-71
2022/09/04 08:38:00;;;;;;;5.28;1.48;;;;;;;;;;6171704;23;20135;-56
2022/09/04 08:40:46;;;;;;;1.55;1.08;;;;;;;;;;6146223;23;20467;-55
2022/09/04 08:43:22;;;;;;;4.10;1.20;;;;;;;;;;6173616;23;20021;-55
2022/09/04 08:46:28;;;;;;;3.42;1.30;;;;;;;;;;6173670;23;20061;-57
2022/09/04 08:49:22;;;;;;;3.08;1.00;;;;;;;;;;6026738;23;20030;-55
2022/09/04 08:52:12;;;;;;;1.42;1.00;;;;;;;;;;6173658;23;20486;-58
2022/09/04 08:55:07;;;;;;;3.50;1.02;;;;;;;;;;6175831;23;20025;-71
2022/09/04 08:57:47;;;;;;;1.67;1.30;;;;;;;;;;6176022;23;20021;-72
2022/09/04 09:00:21;;;;;;;3.80;1.20;;;;;;;;;;6175025;23;20025;-72
2022/09/04 09:03:07;;;;;;;1.50;1.20;;;;;;;;;;6173549;23;20017;-72
2022/09/04 09:05:48;;;;;;;3.10;1.20;;;;;;;;;;6175890;23;20032;-72
2022/09/04 09:08:15;;;;;;;1.00;0.90;;;;;;;;;;6177333;23;20502;-72
2022/09/04 09:11:00;;;;;;;1.85;1.17;;;;;;;;;;6177024;23;20508;-61
2022/09/04 09:13:28;;;;;;;0.93;0.82;;;;;;;;;;6177260;23;20025;-71
2022/09/04 09:16:20;;;;;;;1.35;1.00;;;;;;;;;;6177619;23;20493;-71
2022/09/04 09:19:06;;;;;;;1.83;1.13;;;;;;;;;;6176931;23;20466;-71
2022/09/04 09:21:46;;;;;;;0.95;0.95;;;;;;;;;;6176918;23;20025;-72
2022/09/04 09:24:32;;;;;;;1.55;0.80;;;;;;;;;;6177469;23;20098;-72
2022/09/04 09:27:18;;;;;;;2.97;1.23;;;;;;;;;;6169690;23;20060;-72
2022/09/04 09:29:48;;;;;;;1.50;1.02;;;;;;;;;;6172459;23;20029;-61
2022/09/04 09:32:40;;;;;;;3.08;0.82;;;;;;;;;;6174742;23;20110;-59
2022/09/04 09:35:08;;;;;;;2.08;1.08;;;;;;;;;;6172973;23;20434;-46
2022/09/04 09:37:55;;;;;;;2.13;0.98;;;;;;;;;;6172159;23;20263;-48
2022/09/04 09:40:40;;;;;;;3.28;1.42;;;;;;;;;;6169880;23;20031;-46
2022/09/04 09:43:18;;;;;;;2.08;1.00;;;;;;;;;;6172630;23;20056;-51
2022/09/04 09:45:45;;;;;;;1.55;1.20;;;;;;;;;;6172409;23;20125;-47
2022/09/04 09:48:12;;;;;;;;;;;;;;;;;;6173725;23;20087;-67
2022/09/04 09:50:59;;;;;;;2.00;1.17;;;;;;;;;;6171489;23;19966;-73
2022/09/04 09:53:39;;;;;;;1.50;1.00;;;;;;;;;;6171382;23;20497;-61
2022/09/04 09:56:32;;;;;;;1.33;1.10;;;;;;;;;;6173857;23;20025;-61
2022/09/04 09:59:18;;;;;;;1.15;0.77;;;;;;;;;;6174404;23;20064;-60
2022/09/04 10:02:08;;;;;;;1.20;0.80;;;;;;;;;;6172535;23;20793;-61
2022/09/04 10:04:54;;;;;;;2.45;1.00;;;;;;;;;;6174410;23;20083;-61
2022/09/04 10:07:28;;;;;;;0.77;0.77;;;;;;;;;;6174269;23;20079;-67
2022/09/04 10:10:14;;;;;;;3.33;0.90;;;;;;;;;;6173259;23;20513;-60
2022/09/04 10:13:12;;;;;;;2.05;0.90;;;;;;;;;;6173264;23;20096;-61
2022/09/04 10:15:40;;;;;;;2.08;1.05;;;;;;;;;;6175905;23;20029;-60
2022/09/04 10:18:23;;;;;;;1.33;0.98;;;;;;;;;;6173287;23;20029;-61
2022/09/04 10:20:52;;;;;;;1.38;1.13;;;;;;;;;;6176870;23;20064;-61
2022/09/04 10:23:45;;;;;;;2.65;0.77;;;;;;;;;;6177288;23;20036;-60
2022/09/04 10:26:34;;;;;;;1.35;1.10;;;;;;;;;;6176452;23;20091;-61
2022/09/04 10:29:11;;;;;;;1.33;0.82;;;;;;;;;;6177634;23;20474;-56
2022/09/04 10:31:57;;;;;;;2.58;0.93;;;;;;;;;;6179219;23;20076;-72
2022/09/04 10:34:57;;;;;;;2.97;1.02;;;;;;;;;;6176433;23;20522;-72
2022/09/04 10:37:30;;;;;;;1.08;1.00;;;;;;;;;;6121448;23;20029;-73
2022/09/04 10:40:34;;;;;;;1.35;1.00;;;;;;;;;;6177205;23;20021;-72
2022/09/04 10:43:12;;;;;;;1.25;1.10;;;;;;;;;;6175905;23;20029;-72
2022/09/04 10:46:00;;;;;;;5.03;0.95;;;;;;;;;;6178357;23;20418;-48
2022/09/04 10:48:27;;;;;;;1.95;1.08;;;;;;;;;;6178294;23;20540;-48
2022/09/04 10:51:15;;;;;;;3.20;1.10;;;;;;;;;;6178082;23;20398;-57
2022/09/04 10:53:51;;;;;;;2.30;0.90;;;;;;;;;;6179244;23;20028;-58
2022/09/04 10:56:35;;;;;;;0.90;0.90;;;;;;;;;;6176887;23;20523;-58
2022/09/04 10:59:09;;;;;;;2.78;1.08;;;;;;;;;;6151070;23;20064;-58
2022/09/04 11:01:46;;;;;;;2.00;1.10;;;;;;;;;;6179539;23;20067;-56
2022/09/04 11:04:16;;;;;;;1.75;1.05;;;;;;;;;;6176914;23;20021;-74
2022/09/04 11:07:10;;;;;;;1.60;0.95;;;;;;;;;;6178737;23;20036;-55
2022/09/04 11:09:54;;;;;;;1.95;1.02;;;;;;;;;;6176915;23;20028;-61
2022/09/04 11:12:56;;;;;;;2.58;1.25;;;;;;;;;;6174974;23;20079;-61
2022/09/04 11:15:23;;;;;;;5.03;1.30;;;;;;;;;;6177490;23;20032;-60
2022/09/04 11:18:04;;;;;;;2.28;1.05;;;;;;;;;;6178135;23;20025;-60
2022/09/04 11:20:49;;;;;;;2.08;1.10;;;;;;;;;;6177907;23;20067;-60
2022/09/04 11:23:42;;;;;;;2.03;1.20;;;;;;;;;;6178039;23;20025;-52
2022/09/04 11:26:28;;;;;;;2.65;1.00;;;;;;;;;;6179056;23;20033;-55
2022/09/04 11:29:09;;;;;;;1.58;1.10;;;;;;;;;;6178116;23;20068;-74
2022/09/04 11:31:55;;;;;;;3.10;1.10;;;;;;;;;;6178574;23;20021;-74
2022/09/04 11:34:32;;;;;;;2.20;1.13;;;;;;;;;;6177684;23;20498;-74
2022/09/04 11:37:18;;;;;;;2.35;1.23;;;;;;;;;;6180570;23;20029;-74
2022/09/04 11:40:11;;;;;;;1.17;1.08;;;;;;;;;;6179303;23;20025;-75
2022/09/04 11:42:54;;;;;;;3.42;0.93;;;;;;;;;;6178401;23;20025;-66
2022/09/04 11:45:47;;;;;;;1.65;0.88;;;;;;;;;;6153089;23;20056;-60
2022/09/04 11:48:30;;;;;;;1.65;0.80;;;;;;;;;;6179537;23;20031;-58
2022/09/04 11:51:05;;;;;;;1.23;1.00;;;;;;;;;;6178926;23;20048;-57
2022/09/04 11:53:44;;;;;;;2.85;1.15;;;;;;;;;;6180050;23;20029;-57
2022/09/04 11:56:30;;;;;;;1.73;1.05;;;;;;;;;;6180477;23;20054;-58
2022/09/04 11:59:09;;;;;;;1.23;0.82;;;;;;;;;;6177150;23;20474;-61
2022/09/04 12:02:16;;;;;;;2.80;1.20;;;;;;;;;;6179805;23;20021;-57
2022/09/04 12:05:02;;;;;;;1.00;0.88;;;;;;;;;;6096802;23;20021;-60
2022/09/04 12:07:44;;;;;;;3.50;0.88;;;;;;;;;;6179614;23;20482;-74
2022/09/04 12:10:48;;;;;;;1.92;1.35;;;;;;;;;;6180337;23;20025;-75
2022/09/04 12:13:42;;;;;;;1.48;1.15;;;;;;;;;;6178658;23;20482;-74
2022/09/04 12:16:28;;;;;;;2.30;1.00;;;;;;;;;;6180306;23;20517;-74
2022/09/04 12:19:26;;;;;;;1.60;1.30;;;;;;;;;;6177127;23;20048;-74
2022/09/04 12:22:06;;;;;;;3.85;1.40;;;;;;;;;;6179770;23;20025;-75
2022/09/04 12:24:58;;;;;;;1.80;1.27;;;;;;;;;;6179522;23;20032;-60
2022/09/04 12:27:46;;;;;;;1.98;1.15;;;;;;;;;;6179438;23;20632;-60
2022/09/04 12:30:22;;;;;;;1.80;1.13;;;;;;;;;;6154705;23;20025;-59
2022/09/04 12:32:58;;;;;;;2.55;1.05;;;;;;;;;;6179339;23;20723;-60
2022/09/04 12:35:53;;;;;;;2.35;1.00;;;;;;;;;;6178909;23;20017;-60
2022/09/04 12:38:22;;;;;;;3.03;1.33;;;;;;;;;;6179604;23;20474;-60
2022/09/04 12:40:56;;;;;;;1.70;1.42;;;;;;;;;;6154862;23;20057;-74
2022/09/04 12:43:23;;;;;;;1.20;1.10;;;;;;;;;;6179890;23;20044;-56
2022/09/04 12:45:50;;;;;;;;;;;;;;;;;;6179878;23;20056;-54
2022/09/04 12:48:46;;;;;;;1.40;1.00;;;;;;;;;;6175645;23;19927;-52
2022/09/04 12:51:21;;;;;;;3.47;1.17;;;;;;;;;;6177809;23;20513;-53
2022/09/04 12:54:14;;;;;;;2.58;1.48;;;;;;;;;;6178418;23;20025;-55
2022/09/04 12:57:07;;;;;;;1.30;1.20;;;;;;;;;;6176800;23;20685;-53
2022/09/04 12:59:54;;;;;;;1.73;1.13;;;;;;;;;;6168439;23;20067;-75
2022/09/04 13:02:33;;;;;;;2.45;1.23;;;;;;;;;;6178755;23;20249;-60
2022/09/04 13:05:25;;;;;;;1.85;1.10;;;;;;;;;;6177325;23;20071;-60
2022/09/04 13:08:02;;;;;;;1.13;1.00;;;;;;;;;;6178940;23;20024;-60
2022/09/04 13:11:00;;;;;;;1.48;1.05;;;;;;;;;;6176415;23;20075;-60
2022/09/04 13:13:33;;;;;;;3.00;1.13;;;;;;;;;;6177446;23;20036;-60
2022/09/04 13:16:32;;;;;;;3.20;1.45;;;;;;;;;;6177939;23;20079;-60
2022/09/04 13:19:13;;;;;;;4.65;1.05;;;;;;;;;;6151091;23;20028;-64
2022/09/04 13:21:53;;;;;;;2.67;1.10;;;;;;;;;;6177842;23;20075;-56
2022/09/04 13:24:49;;;;;;;1.00;0.98;;;;;;;;;;6175794;23;20056;-56
2022/09/04 13:27:26;;;;;;;3.35;1.30;;;;;;;;;;6134679;23;20490;-54
2022/09/04 13:29:53;;;;;;;2.28;0.88;;;;;;;;;;6173465;23;20051;-55
2022/09/04 13:32:33;;;;;;;4.20;1.45;;;;;;;;;;6176670;23;20052;-54
2022/09/04 13:35:11;;;;;;;1.40;1.20;;;;;;;;;;6177428;23;20036;-55
2022/09/04 13:37:45;;;;;;;;;;;;;;;;;;6178006;23;20029;-54
2022/09/04 13:40:19;;;;;;;2.58;1.30;;;;;;;;;;6177635;23;19927;-57
2022/09/04 13:43:07;;;;;;;2.45;0.95;;;;;;;;;;6151142;23;20024;-57
2022/09/04 13:45:53;;;;;;;2.88;1.30;;;;;;;;;;6175609;23;20056;-57
2022/09/04 13:48:40;;;;;;;1.88;1.15;;;;;;;;;;6176219;23;20032;-58
2022/09/04 13:51:17;;;;;;;1.65;1.33;;;;;;;;;;6176928;23;20052;-59
2022/09/04 13:54:08;;;;;;;4.03;1.30;;;;;;;;;;6176380;23;20025;-58
2022/09/04 13:56:48;;;;;;;1.90;1.40;;;;;;;;;;6165488;23;20029;-60
2022/09/04 13:59:16;;;;;;;3.03;1.30;;;;;;;;;;6176827;23;20025;-44
2022/09/04 14:01:54;;;;;;;1.13;1.02;;;;;;;;;;6178409;23;20067;-47
2022/09/04 14:04:28;;;;;;;2.17;1.40;;;;;;;;;;6175412;23;20454;-47
2022/09/04 14:07:13;;;;;;;1.25;1.10;;;;;;;;;;6178486;23;20063;-46
2022/09/04 14:09:48;;;;;;;2.33;1.33;;;;;;;;;;6177762;23;20084;-48
2022/09/04 14:12:31;;;;;;;2.58;1.30;;;;;;;;;;6177101;23;20028;-47
2022/09/04 14:15:19;;;;;;;1.95;1.23;;;;;;;;;;6177846;23;20105;-72
2022/09/04 14:18:12;;;;;;;5.25;1.30;;;;;;;;;;6177989;23;20311;-57
2022/09/04 14:20:56;;;;;;;4.57;1.45;;;;;;;;;;6175003;23;20075;-57
2022/09/04 14:23:34;;;;;;;5.38;1.60;;;;;;;;;;6177052;23;20032;-54
2022/09/04 14:26:03;;;;;;;3.10;1.60;;;;;;;;;;6173589;23;20080;-58
2022/09/04 14:28:38;;;;;;;2.65;1.40;;;;;;;;;;6172369;23;20028;-53
2022/09/04 14:31:13;;;;;;;1.20;1.10;;;;;;;;;;6175568;23;20667;-56
2022/09/04 14:34:04;;;;;;;3.08;1.33;;;;;;;;;;6170937;23;20020;-56
2022/09/04 14:37:06;;;;;;;3.28;1.40;;;;;;;;;;6175857;23;20053;-57
2022/09/04 14:39:34;;;;;;;3.08;1.42;;;;;;;;;;6170105;23;20029;-61
2022/09/04 14:42:11;;;;;;;3.58;1.52;;;;;;;;;;6175666;23;20044;-60
2022/09/04 14:44:50;;;;;;;2.75;1.23;;;;;;;;;;6175757;23;20029;-60
2022/09/04 14:47:53;;;;;;;3.50;1.50;;;;;;;;;;6175121;23;20095;-61
2022/09/04 14:50:27;;;;;;;3.67;1.23;;;;;;;;;;6143873;23;20064;-60
2022/09/04 14:53:02;;;;;;;2.38;1.38;;;;;;;;;;6175561;23;20029;-64
2022/09/04 14:55:31;;;;;;;3.60;1.40;;;;;;;;;;6173911;23;20378;-55
2022/09/04 14:58:07;;;;;;;2.60;1.30;;;;;;;;;;6150296;23;20032;-56
2022/09/04 15:01:01;;;;;;;2.80;1.45;;;;;;;;;;6175240;23;20059;-56
2022/09/04 15:03:33;;;;;;;2.08;1.20;;;;;;;;;;6174941;23;20028;-56
2022/09/04 15:06:14;;;;;;;4.47;1.67;;;;;;;;;;6171930;23;20343;-56
2022/09/04 15:08:43;;;;;;;3.55;1.40;;;;;;;;;;6177077;23;20156;-53
2022/09/04 15:11:31;;;;;;;2.95;1.30;;;;;;;;;;6173588;23;20113;-58
2022/09/04 15:14:03;;;;;;;1.95;1.45;;;;;;;;;;6177556;23;20087;-55
2022/09/04 15:16:41;;;;;;;1.70;1.33;;;;;;;;;;6177573;23;20021;-58
2022/09/04 15:19:25;;;;;;;2.53;1.60;;;;;;;;;;6179122;23;20051;-53
2022/09/04 15:22:09;;;;;;;1.45;1.35;;;;;;;;;;6178548;23;20079;-56
2022/09/04 15:24:49;;;;;;;2.00;1.50;;;;;;;;;;6177807;23;20021;-55
2022/09/04 15:27:31;;;;;;;2.03;1.48;;;;;;;;;;6177178;23;20059;-55
2022/09/04 15:30:02;;;;;;;4.15;1.45;;;;;;;;;;6178194;23;20052;-55
2022/09/04 15:32:38;;;;;;;3.55;1.65;;;;;;;;;;6177191;23;20080;-65
2022/09/04 15:35:24;;;;;;;3.83;1.40;;;;;;;;;;6174019;23;20033;-57
2022/09/04 15:38:19;;;;;;;2.03;1.40;;;;;;;;;;6178395;23;20083;-53
2022/09/04 15:41:10;;;;;;;1.65;1.55;;;;;;;;;;6175290;23;20035;-55
2022/09/04 15:43:50;;;;;;;1.85;1.65;;;;;;;;;;6179442;23;20079;-56
2022/09/04 15:46:17;;;;;;;5.15;1.70;;;;;;;;;;6177805;23;20025;-56
2022/09/04 15:49:06;;;;;;;3.22;1.52;;;;;;;;;;6179504;23;20033;-55
2022/09/04 15:51:36;;;;;;;3.25;1.70;;;;;;;;;;6177072;23;20060;-60
2022/09/04 15:54:20;;;;;;;1.85;1.63;;;;;;;;;;6177534;23;20051;-65
2022/09/04 15:56:56;;;;;;;2.15;1.40;;;;;;;;;;6178856;23;20028;-65
2022/09/04 15:59:30;;;;;;;5.32;1.70;;;;;;;;;;6176628;23;20060;-65
2022/09/04 16:02:00;;;;;;;3.72;1.58;;;;;;;;;;6179791;23;20354;-65
2022/09/04 16:04:41;;;;;;;4.75;1.65;;;;;;;;;;6177999;23;20097;-65
2022/09/04 16:07:22;;;;;;;3.20;1.60;;;;;;;;;;6177348;23;20079;-65
2022/09/04 16:10:00;;;;;;;2.40;1.75;;;;;;;;;;6175107;23;20024;-53
2022/09/04 16:12:42;;;;;;;2.15;1.50;;;;;;;;;;6178376;23;20079;-57